sensor_id;sensor_type;location;lat;lon;timestamp;pressure;altitude;pressure_sealevel;temperature;humidity
76853;BME280;65825;52.232;10.566;2024-02-26T00:01:54;99464.09;;;5.67;65.14
76853;BME280;65825;52.232;10.566;2024-02-26T00:04:19;99457.84;;;5.45;66.36
76853;BME280;65825;52.232;10.566;2024-02-26T00:06:45;99466.94;;;5.61;66.12
76853;BME280;65825;52.232;10.566;2024-02-26T00:09:11;99465.50;;;5.78;65.81
76853;BME280;65825;52.232;10.566;2024-02-26T00:11:36;99464.22;;;5.91;65.55
76853;BME280;65825;52.232;10.566;2024-02-26T00:14:02;99458.34;;;5.85;65.87
76853;BME280;65825;52.232;10.566;2024-02-26T00:16:27;99461.91;;;5.82;65.78
76853;BME280;65825;52.232;10.566;2024-02-26T00:18:52;99454.78;;;5.58;66.52
76853;BME280;65825;52.232;10.566;2024-02-26T00:21:18;99449.88;;;5.48;66.85
76853;BME280;65825;52.232;10.566;2024-02-26T00:23:43;99452.53;;;6.01;65.41
76853;BME280;65825;52.232;10.566;2024-02-26T00:26:08;99449.88;;;6.03;65.21
76853;BME280;65825;52.232;10.566;2024-02-26T00:28:35;99449.28;;;6.21;64.36
76853;BME280;65825;52.232;10.566;2024-02-26T00:31:01;99455.34;;;5.95;65.13
76853;BME280;65825;52.232;10.566;2024-02-26T00:33:26;99445.31;;;6.34;64.24
76853;BME280;65825;52.232;10.566;2024-02-26T00:35:51;99446.47;;;6.25;63.92
76853;BME280;65825;52.232;10.566;2024-02-26T00:38:16;99451.50;;;6.07;63.98
76853;BME280;65825;52.232;10.566;2024-02-26T00:40:42;99452.94;;;5.62;65.68
76853;BME280;65825;52.232;10.566;2024-02-26T00:43:07;99461.09;;;5.24;66.48
76853;BME280;65825;52.232;10.566;2024-02-26T00:45:32;99440.78;;;5.59;67.13
76853;BME280;65825;52.232;10.566;2024-02-26T00:47:58;99452.09;;;5.32;67.23
76853;BME280;65825;52.232;10.566;2024-02-26T00:50:23;99454.94;;;5.54;66.71
76853;BME280;65825;52.232;10.566;2024-02-26T00:52:48;99451.22;;;5.88;66.00
76853;BME280;65825;52.232;10.566;2024-02-26T00:55:14;99448.47;;;5.38;66.78
76853;BME280;65825;52.232;10.566;2024-02-26T00:57:39;99452.84;;;5.37;68.24
76853;BME280;65825;52.232;10.566;2024-02-26T01:00:06;99453.69;;;5.38;67.96
76853;BME280;65825;52.232;10.566;2024-02-26T01:02:33;99443.69;;;5.50;67.91
76853;BME280;65825;52.232;10.566;2024-02-26T01:04:59;99437.66;;;5.48;68.84
76853;BME280;65825;52.232;10.566;2024-02-26T01:07:24;99438.44;;;5.50;69.13
76853;BME280;65825;52.232;10.566;2024-02-26T01:09:49;99446.25;;;5.52;68.90
76853;BME280;65825;52.232;10.566;2024-02-26T01:12:14;99440.25;;;5.76;67.80
76853;BME280;65825;52.232;10.566;2024-02-26T01:14:40;99442.44;;;5.91;67.98
76853;BME280;65825;52.232;10.566;2024-02-26T01:17:05;99441.81;;;5.83;67.62
76853;BME280;65825;52.232;10.566;2024-02-26T01:19:31;99449.03;;;5.75;67.85
76853;BME280;65825;52.232;10.566;2024-02-26T01:21:56;99426.53;;;5.68;67.64
76853;BME280;65825;52.232;10.566;2024-02-26T01:24:21;99441.13;;;6.02;67.85
76853;BME280;65825;52.232;10.566;2024-02-26T01:26:46;99432.75;;;5.93;67.23
76853;BME280;65825;52.232;10.566;2024-02-26T01:29:12;99427.66;;;5.88;67.84
76853;BME280;65825;52.232;10.566;2024-02-26T01:31:37;99425.88;;;6.15;66.70
76853;BME280;65825;52.232;10.566;2024-02-26T01:34:02;99433.09;;;6.08;66.59
76853;BME280;65825;52.232;10.566;2024-02-26T01:36:27;99435.72;;;6.08;67.03
76853;BME280;65825;52.232;10.566;2024-02-26T01:38:53;99428.25;;;5.96;67.13
76853;BME280;65825;52.232;10.566;2024-02-26T01:41:18;99421.47;;;6.17;66.77
76853;BME280;65825;52.232;10.566;2024-02-26T01:43:43;99427.50;;;6.19;66.97
76853;BME280;65825;52.232;10.566;2024-02-26T01:46:13;99420.84;;;5.83;67.61
76853;BME280;65825;52.232;10.566;2024-02-26T01:48:41;99421.66;;;6.11;67.11
76853;BME280;65825;52.232;10.566;2024-02-26T01:51:06;99412.91;;;6.12;67.20
76853;BME280;65825;52.232;10.566;2024-02-26T01:53:31;99419.75;;;6.40;65.89
76853;BME280;65825;52.232;10.566;2024-02-26T01:55:57;99414.00;;;6.31;65.85
76853;BME280;65825;52.232;10.566;2024-02-26T01:58:23;99414.59;;;6.37;65.72
76853;BME280;65825;52.232;10.566;2024-02-26T02:00:48;99429.16;;;6.70;64.50
76853;BME280;65825;52.232;10.566;2024-02-26T02:03:14;99421.84;;;6.31;65.63
76853;BME280;65825;52.232;10.566;2024-02-26T02:05:39;99428.31;;;6.45;65.55
76853;BME280;65825;52.232;10.566;2024-02-26T02:08:07;99433.66;;;5.92;66.40
76853;BME280;65825;52.232;10.566;2024-02-26T02:10:33;99432.59;;;5.97;65.96
76853;BME280;65825;52.232;10.566;2024-02-26T02:12:58;99438.34;;;5.82;66.72
76853;BME280;65825;52.232;10.566;2024-02-26T02:15:23;99445.78;;;5.67;66.13
76853;BME280;65825;52.232;10.566;2024-02-26T02:17:48;99436.66;;;5.52;66.70
76853;BME280;65825;52.232;10.566;2024-02-26T02:20:17;99432.59;;;5.70;66.14
76853;BME280;65825;52.232;10.566;2024-02-26T02:22:44;99442.00;;;5.75;65.85
76853;BME280;65825;52.232;10.566;2024-02-26T02:25:10;99447.88;;;5.85;65.75
76853;BME280;65825;52.232;10.566;2024-02-26T02:27:35;99444.47;;;5.81;65.92
76853;BME280;65825;52.232;10.566;2024-02-26T02:30:01;99444.28;;;5.60;67.59
76853;BME280;65825;52.232;10.566;2024-02-26T02:32:27;99449.66;;;5.28;67.32
76853;BME280;65825;52.232;10.566;2024-02-26T02:34:54;99440.00;;;5.57;65.70
76853;BME280;65825;52.232;10.566;2024-02-26T02:37:20;99436.50;;;5.57;67.17
76853;BME280;65825;52.232;10.566;2024-02-26T02:39:45;99436.38;;;5.34;67.21
76853;BME280;65825;52.232;10.566;2024-02-26T02:42:11;99440.63;;;5.38;67.62
76853;BME280;65825;52.232;10.566;2024-02-26T02:44:37;99442.06;;;5.19;68.02
76853;BME280;65825;52.232;10.566;2024-02-26T02:47:02;99443.50;;;5.00;67.86
76853;BME280;65825;52.232;10.566;2024-02-26T02:49:27;99440.44;;;5.15;67.83
76853;BME280;65825;52.232;10.566;2024-02-26T02:51:53;99440.03;;;4.99;67.72
76853;BME280;65825;52.232;10.566;2024-02-26T02:54:22;99441.28;;;4.86;67.47
76853;BME280;65825;52.232;10.566;2024-02-26T02:56:48;99442.13;;;4.56;68.51
76853;BME280;65825;52.232;10.566;2024-02-26T02:59:13;99436.84;;;4.27;70.03
76853;BME280;65825;52.232;10.566;2024-02-26T03:01:38;99441.53;;;4.15;69.52
76853;BME280;65825;52.232;10.566;2024-02-26T03:04:03;99449.91;;;4.27;69.84
76853;BME280;65825;52.232;10.566;2024-02-26T03:06:29;99454.88;;;3.68;71.59
76853;BME280;65825;52.232;10.566;2024-02-26T03:08:54;99452.72;;;3.85;71.06
76853;BME280;65825;52.232;10.566;2024-02-26T03:11:20;99454.41;;;4.21;70.10
76853;BME280;65825;52.232;10.566;2024-02-26T03:13:45;99455.00;;;4.32;69.77
76853;BME280;65825;52.232;10.566;2024-02-26T03:16:11;99464.34;;;4.07;70.02
76853;BME280;65825;52.232;10.566;2024-02-26T03:18:38;99469.50;;;4.10;70.15
76853;BME280;65825;52.232;10.566;2024-02-26T03:21:04;99456.38;;;3.78;70.25
76853;BME280;65825;52.232;10.566;2024-02-26T03:23:29;99464.34;;;4.07;70.47
76853;BME280;65825;52.232;10.566;2024-02-26T03:25:57;99449.03;;;3.93;70.16
76853;BME280;65825;52.232;10.566;2024-02-26T03:28:22;99458.19;;;4.09;69.54
76853;BME280;65825;52.232;10.566;2024-02-26T03:30:47;99467.16;;;3.99;69.68
76853;BME280;65825;52.232;10.566;2024-02-26T03:33:12;99462.84;;;3.97;70.52
76853;BME280;65825;52.232;10.566;2024-02-26T03:35:37;99471.38;;;4.05;70.33
76853;BME280;65825;52.232;10.566;2024-02-26T03:38:03;99472.16;;;4.08;71.17
76853;BME280;65825;52.232;10.566;2024-02-26T03:40:28;99464.19;;;4.13;70.71
76853;BME280;65825;52.232;10.566;2024-02-26T03:42:53;99470.44;;;4.07;70.56
76853;BME280;65825;52.232;10.566;2024-02-26T03:45:19;99476.63;;;4.03;70.41
76853;BME280;65825;52.232;10.566;2024-02-26T03:47:44;99477.69;;;4.30;70.46
76853;BME280;65825;52.232;10.566;2024-02-26T03:50:09;99474.50;;;4.19;71.32
76853;BME280;65825;52.232;10.566;2024-02-26T03:52:35;99477.38;;;4.42;70.88
76853;BME280;65825;52.232;10.566;2024-02-26T03:55:00;99481.66;;;4.44;70.10
76853;BME280;65825;52.232;10.566;2024-02-26T03:57:25;99480.75;;;4.45;70.71
76853;BME280;65825;52.232;10.566;2024-02-26T03:59:50;99488.03;;;4.66;70.29
76853;BME280;65825;52.232;10.566;2024-02-26T04:02:16;99478.25;;;4.42;69.36
76853;BME280;65825;52.232;10.566;2024-02-26T04:04:41;99474.91;;;4.68;69.48
76853;BME280;65825;52.232;10.566;2024-02-26T04:07:06;99482.66;;;4.39;71.75
76853;BME280;65825;52.232;10.566;2024-02-26T04:09:33;99474.47;;;4.52;69.93
76853;BME280;65825;52.232;10.566;2024-02-26T04:11:58;99486.31;;;3.98;70.98
76853;BME280;65825;52.232;10.566;2024-02-26T04:14:23;99480.34;;;4.28;71.46
76853;BME280;65825;52.232;10.566;2024-02-26T04:16:49;99470.91;;;4.23;71.02
76853;BME280;65825;52.232;10.566;2024-02-26T04:19:17;99468.63;;;4.43;70.28
76853;BME280;65825;52.232;10.566;2024-02-26T04:21:42;99466.25;;;4.34;69.86
76853;BME280;65825;52.232;10.566;2024-02-26T04:24:07;99471.41;;;4.37;68.76
76853;BME280;65825;52.232;10.566;2024-02-26T04:26:33;99469.41;;;4.46;68.29
76853;BME280;65825;52.232;10.566;2024-02-26T04:28:58;99475.66;;;4.41;68.36
76853;BME280;65825;52.232;10.566;2024-02-26T04:31:23;99481.34;;;4.55;69.05
76853;BME280;65825;52.232;10.566;2024-02-26T04:33:48;99475.81;;;4.35;69.46
76853;BME280;65825;52.232;10.566;2024-02-26T04:36:14;99489.19;;;4.55;68.24
76853;BME280;65825;52.232;10.566;2024-02-26T04:38:45;99485.53;;;4.30;68.00
76853;BME280;65825;52.232;10.566;2024-02-26T04:41:11;99486.28;;;4.35;68.80
76853;BME280;65825;52.232;10.566;2024-02-26T04:43:36;99495.34;;;4.54;68.37
76853;BME280;65825;52.232;10.566;2024-02-26T04:46:07;99497.28;;;4.47;69.14
76853;BME280;65825;52.232;10.566;2024-02-26T04:48:33;99500.28;;;4.64;68.80
76853;BME280;65825;52.232;10.566;2024-02-26T04:50:59;99504.41;;;4.73;68.79
76853;BME280;65825;52.232;10.566;2024-02-26T04:53:24;99505.31;;;4.72;68.28
76853;BME280;65825;52.232;10.566;2024-02-26T04:55:49;99511.16;;;4.80;68.35
76853;BME280;65825;52.232;10.566;2024-02-26T04:58:14;99514.50;;;4.86;67.62
76853;BME280;65825;52.232;10.566;2024-02-26T05:00:40;99514.69;;;4.79;68.83
76853;BME280;65825;52.232;10.566;2024-02-26T05:03:05;99520.59;;;4.87;68.57
76853;BME280;65825;52.232;10.566;2024-02-26T05:05:30;99521.88;;;5.03;67.43
76853;BME280;65825;52.232;10.566;2024-02-26T05:07:55;99526.94;;;5.09;67.02
76853;BME280;65825;52.232;10.566;2024-02-26T05:10:21;99527.66;;;5.14;67.52
76853;BME280;65825;52.232;10.566;2024-02-26T05:12:46;99533.19;;;5.03;68.04
76853;BME280;65825;52.232;10.566;2024-02-26T05:15:11;99530.78;;;4.96;68.71
76853;BME280;65825;52.232;10.566;2024-02-26T05:17:40;99530.25;;;5.15;67.61
76853;BME280;65825;52.232;10.566;2024-02-26T05:20:06;99532.78;;;4.86;67.87
76853;BME280;65825;52.232;10.566;2024-02-26T05:22:32;99544.38;;;4.44;70.26
76853;BME280;65825;52.232;10.566;2024-02-26T05:24:58;99537.16;;;4.86;68.53
76853;BME280;65825;52.232;10.566;2024-02-26T05:27:23;99543.06;;;4.92;67.60
76853;BME280;65825;52.232;10.566;2024-02-26T05:29:49;99536.53;;;4.76;70.08
76853;BME280;65825;52.232;10.566;2024-02-26T05:32:14;99547.75;;;4.81;69.52
76853;BME280;65825;52.232;10.566;2024-02-26T05:34:39;99546.13;;;5.09;68.94
76853;BME280;65825;52.232;10.566;2024-02-26T05:37:06;99548.47;;;5.17;68.71
76853;BME280;65825;52.232;10.566;2024-02-26T05:39:32;99542.69;;;5.06;69.07
76853;BME280;65825;52.232;10.566;2024-02-26T05:41:57;99542.81;;;5.03;69.16
76853;BME280;65825;52.232;10.566;2024-02-26T05:44:26;99555.22;;;4.95;69.35
76853;BME280;65825;52.232;10.566;2024-02-26T05:46:52;99558.09;;;5.16;68.08
76853;BME280;65825;52.232;10.566;2024-02-26T05:49:17;99552.28;;;5.07;69.30
76853;BME280;65825;52.232;10.566;2024-02-26T05:51:42;99542.47;;;5.13;69.45
76853;BME280;65825;52.232;10.566;2024-02-26T05:54:07;99555.31;;;5.22;68.68
76853;BME280;65825;52.232;10.566;2024-02-26T05:56:33;99541.97;;;5.01;69.69
76853;BME280;65825;52.232;10.566;2024-02-26T05:58:58;99549.44;;;5.14;69.52
76853;BME280;65825;52.232;10.566;2024-02-26T06:01:24;99548.13;;;5.30;69.67
76853;BME280;65825;52.232;10.566;2024-02-26T06:03:50;99555.78;;;5.36;71.84
76853;BME280;65825;52.232;10.566;2024-02-26T06:06:16;99555.56;;;5.13;70.60
76853;BME280;65825;52.232;10.566;2024-02-26T06:08:41;99550.75;;;5.30;69.79
76853;BME280;65825;52.232;10.566;2024-02-26T06:11:07;99565.94;;;5.47;69.48
76853;BME280;65825;52.232;10.566;2024-02-26T06:13:33;99564.06;;;5.50;68.92
76853;BME280;65825;52.232;10.566;2024-02-26T06:15:58;99563.06;;;5.56;68.76
76853;BME280;65825;52.232;10.566;2024-02-26T06:18:23;99558.69;;;5.56;68.94
76853;BME280;65825;52.232;10.566;2024-02-26T06:20:48;99559.78;;;5.48;69.35
76853;BME280;65825;52.232;10.566;2024-02-26T06:23:14;99556.75;;;5.34;69.34
76853;BME280;65825;52.232;10.566;2024-02-26T06:25:39;99560.09;;;5.39;69.96
76853;BME280;65825;52.232;10.566;2024-02-26T06:28:04;99566.16;;;5.39;69.49
76853;BME280;65825;52.232;10.566;2024-02-26T06:30:30;99559.13;;;5.70;69.07
76853;BME280;65825;52.232;10.566;2024-02-26T06:32:55;99570.47;;;5.71;68.87
76853;BME280;65825;52.232;10.566;2024-02-26T06:35:20;99564.84;;;5.84;68.55
76853;BME280;65825;52.232;10.566;2024-02-26T06:37:46;99560.97;;;5.67;68.19
76853;BME280;65825;52.232;10.566;2024-02-26T06:40:11;99572.47;;;5.92;70.06
76853;BME280;65825;52.232;10.566;2024-02-26T06:42:36;99572.75;;;5.83;69.33
76853;BME280;65825;52.232;10.566;2024-02-26T06:45:02;99576.41;;;5.76;69.40
76853;BME280;65825;52.232;10.566;2024-02-26T06:47:29;99579.13;;;5.73;69.78
76853;BME280;65825;52.232;10.566;2024-02-26T06:49:54;99585.53;;;5.34;70.60
76853;BME280;65825;52.232;10.566;2024-02-26T06:52:23;99592.06;;;5.48;69.84
76853;BME280;65825;52.232;10.566;2024-02-26T06:54:48;99594.69;;;5.48;70.89
76853;BME280;65825;52.232;10.566;2024-02-26T06:57:16;99601.56;;;5.52;71.09
76853;BME280;65825;52.232;10.566;2024-02-26T06:59:41;99611.78;;;5.90;69.92
76853;BME280;65825;52.232;10.566;2024-02-26T07:02:10;99615.78;;;6.03;69.26
76853;BME280;65825;52.232;10.566;2024-02-26T07:04:36;99614.94;;;6.01;69.60
76853;BME280;65825;52.232;10.566;2024-02-26T07:07:02;99618.06;;;6.14;69.40
76853;BME280;65825;52.232;10.566;2024-02-26T07:09:27;99621.19;;;6.25;69.23
76853;BME280;65825;52.232;10.566;2024-02-26T07:11:52;99614.03;;;6.30;68.89
76853;BME280;65825;52.232;10.566;2024-02-26T07:14:18;99619.19;;;6.05;69.13
76853;BME280;65825;52.232;10.566;2024-02-26T07:16:43;99620.75;;;5.83;70.92
76853;BME280;65825;52.232;10.566;2024-02-26T07:19:08;99624.97;;;6.16;70.54
76853;BME280;65825;52.232;10.566;2024-02-26T07:21:33;99625.59;;;6.52;69.55
76853;BME280;65825;52.232;10.566;2024-02-26T07:23:59;99628.34;;;6.73;68.20
76853;BME280;65825;52.232;10.566;2024-02-26T07:26:24;99630.41;;;6.90;67.77
76853;BME280;65825;52.232;10.566;2024-02-26T07:28:51;99627.78;;;6.90;67.87
76853;BME280;65825;52.232;10.566;2024-02-26T07:31:17;99623.28;;;6.93;67.83
76853;BME280;65825;52.232;10.566;2024-02-26T07:33:42;99623.91;;;7.01;68.04
76853;BME280;65825;52.232;10.566;2024-02-26T07:36:08;99634.16;;;7.09;67.89
76853;BME280;65825;52.232;10.566;2024-02-26T07:38:33;99636.69;;;7.10;67.86
76853;BME280;65825;52.232;10.566;2024-02-26T07:40:59;99634.09;;;7.35;67.46
76853;BME280;65825;52.232;10.566;2024-02-26T07:43:24;99649.84;;;7.35;66.44
76853;BME280;65825;52.232;10.566;2024-02-26T07:45:49;99639.91;;;6.94;68.28
76853;BME280;65825;52.232;10.566;2024-02-26T07:48:14;99647.53;;;7.01;68.21
76853;BME280;65825;52.232;10.566;2024-02-26T07:50:40;99648.78;;;6.90;67.86
76853;BME280;65825;52.232;10.566;2024-02-26T07:53:08;99638.84;;;7.24;67.84
76853;BME280;65825;52.232;10.566;2024-02-26T07:55:34;99642.63;;;7.15;68.49
76853;BME280;65825;52.232;10.566;2024-02-26T07:57:59;99639.66;;;7.01;67.40
76853;BME280;65825;52.232;10.566;2024-02-26T08:00:25;99649.59;;;6.92;67.07
76853;BME280;65825;52.232;10.566;2024-02-26T08:02:50;99646.66;;;6.75;67.88
76853;BME280;65825;52.232;10.566;2024-02-26T08:05:16;99645.78;;;7.00;67.52
76853;BME280;65825;52.232;10.566;2024-02-26T08:07:41;99652.81;;;7.00;67.65
76853;BME280;65825;52.232;10.566;2024-02-26T08:10:07;99647.81;;;7.18;67.05
76853;BME280;65825;52.232;10.566;2024-02-26T08:12:32;99652.41;;;7.36;66.49
76853;BME280;65825;52.232;10.566;2024-02-26T08:14:58;99658.22;;;7.69;65.97
76853;BME280;65825;52.232;10.566;2024-02-26T08:17:23;99654.63;;;7.71;65.62
76853;BME280;65825;52.232;10.566;2024-02-26T08:19:49;99650.97;;;7.75;64.93
76853;BME280;65825;52.232;10.566;2024-02-26T08:22:14;99654.34;;;7.79;64.85
76853;BME280;65825;52.232;10.566;2024-02-26T08:24:42;99652.47;;;7.82;64.82
76853;BME280;65825;52.232;10.566;2024-02-26T08:27:07;99650.88;;;7.78;65.16
76853;BME280;65825;52.232;10.566;2024-02-26T08:29:32;99656.22;;;7.98;65.37
76853;BME280;65825;52.232;10.566;2024-02-26T08:31:57;99653.75;;;8.17;65.46
76853;BME280;65825;52.232;10.566;2024-02-26T08:34:23;99647.66;;;7.93;66.53
76853;BME280;65825;52.232;10.566;2024-02-26T08:36:48;99659.41;;;8.08;66.23
76853;BME280;65825;52.232;10.566;2024-02-26T08:39:14;99655.41;;;8.19;66.34
76853;BME280;65825;52.232;10.566;2024-02-26T08:41:39;99656.66;;;8.34;65.10
76853;BME280;65825;52.232;10.566;2024-02-26T08:44:04;99656.41;;;8.40;64.67
76853;BME280;65825;52.232;10.566;2024-02-26T08:46:30;99648.41;;;8.43;65.38
76853;BME280;65825;52.232;10.566;2024-02-26T08:48:56;99654.69;;;8.60;64.52
76853;BME280;65825;52.232;10.566;2024-02-26T08:51:21;99656.13;;;8.47;65.22
76853;BME280;65825;52.232;10.566;2024-02-26T08:53:46;99650.09;;;8.65;65.13
76853;BME280;65825;52.232;10.566;2024-02-26T08:56:12;99657.13;;;8.86;63.69
76853;BME280;65825;52.232;10.566;2024-02-26T08:58:42;99657.50;;;8.56;65.17
76853;BME280;65825;52.232;10.566;2024-02-26T09:01:07;99657.06;;;8.88;64.21
76853;BME280;65825;52.232;10.566;2024-02-26T09:03:33;99663.47;;;8.82;62.90
76853;BME280;65825;52.232;10.566;2024-02-26T09:05:58;99658.59;;;8.72;63.87
76853;BME280;65825;52.232;10.566;2024-02-26T09:08:23;99662.41;;;8.65;63.83
76853;BME280;65825;52.232;10.566;2024-02-26T09:10:49;99652.44;;;8.73;63.27
76853;BME280;65825;52.232;10.566;2024-02-26T09:13:15;99652.16;;;8.79;63.69
76853;BME280;65825;52.232;10.566;2024-02-26T09:15:40;99658.16;;;8.39;64.32
76853;BME280;65825;52.232;10.566;2024-02-26T09:18:06;99662.22;;;8.48;64.81
76853;BME280;65825;52.232;10.566;2024-02-26T09:20:31;99661.66;;;8.40;64.91
76853;BME280;65825;52.232;10.566;2024-02-26T09:22:56;99658.50;;;8.53;64.01
76853;BME280;65825;52.232;10.566;2024-02-26T09:25:21;99663.34;;;8.64;64.67
76853;BME280;65825;52.232;10.566;2024-02-26T09:27:47;99663.03;;;8.50;64.90
76853;BME280;65825;52.232;10.566;2024-02-26T09:30:13;99661.25;;;8.72;64.81
76853;BME280;65825;52.232;10.566;2024-02-26T09:32:39;99655.28;;;8.45;64.48
76853;BME280;65825;52.232;10.566;2024-02-26T09:35:06;99657.72;;;8.93;63.35
76853;BME280;65825;52.232;10.566;2024-02-26T09:37:31;99654.38;;;8.89;64.04
76853;BME280;65825;52.232;10.566;2024-02-26T09:39:57;99648.22;;;8.69;64.69
76853;BME280;65825;52.232;10.566;2024-02-26T09:42:25;99645.63;;;8.24;65.22
76853;BME280;65825;52.232;10.566;2024-02-26T09:44:53;99650.19;;;7.73;66.36
76853;BME280;65825;52.232;10.566;2024-02-26T09:47:19;99652.03;;;7.94;66.82
76853;BME280;65825;52.232;10.566;2024-02-26T09:49:46;99648.97;;;8.05;66.87
76853;BME280;65825;52.232;10.566;2024-02-26T09:52:12;99658.31;;;7.90;68.16
76853;BME280;65825;52.232;10.566;2024-02-26T09:54:40;99663.25;;;7.75;67.18
76853;BME280;65825;52.232;10.566;2024-02-26T09:57:08;99664.88;;;8.02;66.86
76853;BME280;65825;52.232;10.566;2024-02-26T09:59:41;99635.63;;;7.88;66.72
76853;BME280;65825;52.232;10.566;2024-02-26T10:02:13;99666.72;;;8.23;66.87
76853;BME280;65825;52.232;10.566;2024-02-26T10:04:39;99672.81;;;8.46;66.31
76853;BME280;65825;52.232;10.566;2024-02-26T10:07:10;99673.22;;;8.79;65.57
76853;BME280;65825;52.232;10.566;2024-02-26T10:09:35;99673.41;;;8.31;65.99
76853;BME280;65825;52.232;10.566;2024-02-26T10:12:01;99670.72;;;8.54;65.20
76853;BME280;65825;52.232;10.566;2024-02-26T10:14:26;99689.81;;;8.59;65.67
76853;BME280;65825;52.232;10.566;2024-02-26T10:16:52;99681.88;;;8.61;65.35
76853;BME280;65825;52.232;10.566;2024-02-26T10:19:27;99690.25;;;8.49;65.71
76853;BME280;65825;52.232;10.566;2024-02-26T10:21:57;99690.31;;;8.69;64.69
76853;BME280;65825;52.232;10.566;2024-02-26T10:24:23;99694.44;;;8.53;64.73
76853;BME280;65825;52.232;10.566;2024-02-26T10:26:48;99698.63;;;8.58;64.00
76853;BME280;65825;52.232;10.566;2024-02-26T10:29:14;99693.91;;;8.45;63.62
76853;BME280;65825;52.232;10.566;2024-02-26T10:31:42;99694.31;;;8.34;63.82
76853;BME280;65825;52.232;10.566;2024-02-26T10:34:07;99696.31;;;8.72;63.50
76853;BME280;65825;52.232;10.566;2024-02-26T10:36:36;99696.72;;;9.05;63.37
76853;BME280;65825;52.232;10.566;2024-02-26T10:39:03;99698.56;;;9.03;63.95
76853;BME280;65825;52.232;10.566;2024-02-26T10:41:29;99693.84;;;9.11;63.97
76853;BME280;65825;52.232;10.566;2024-02-26T10:43:54;99696.44;;;8.91;65.03
76853;BME280;65825;52.232;10.566;2024-02-26T10:46:20;99688.03;;;8.81;64.78
76853;BME280;65825;52.232;10.566;2024-02-26T10:48:50;99697.56;;;9.05;64.36
76853;BME280;65825;52.232;10.566;2024-02-26T10:51:17;99700.88;;;8.89;64.52
76853;BME280;65825;52.232;10.566;2024-02-26T10:53:45;99705.00;;;8.96;65.27
76853;BME280;65825;52.232;10.566;2024-02-26T10:56:14;99708.31;;;8.79;66.20
76853;BME280;65825;52.232;10.566;2024-02-26T10:58:42;99707.44;;;9.00;64.73
76853;BME280;65825;52.232;10.566;2024-02-26T11:01:08;99702.63;;;9.10;65.53
76853;BME280;65825;52.232;10.566;2024-02-26T11:03:35;99712.94;;;8.73;66.35
76853;BME280;65825;52.232;10.566;2024-02-26T11:06:01;99706.50;;;9.01;67.01
76853;BME280;65825;52.232;10.566;2024-02-26T11:08:30;99714.84;;;8.91;66.26
76853;BME280;65825;52.232;10.566;2024-02-26T11:10:56;99703.59;;;8.87;66.73
76853;BME280;65825;52.232;10.566;2024-02-26T11:13:23;99703.50;;;8.89;67.27
76853;BME280;65825;52.232;10.566;2024-02-26T11:15:52;99698.91;;;8.94;66.78
76853;BME280;65825;52.232;10.566;2024-02-26T11:18:19;99708.00;;;8.87;67.04
76853;BME280;65825;52.232;10.566;2024-02-26T11:20:49;99707.28;;;9.25;66.51
76853;BME280;65825;52.232;10.566;2024-02-26T11:23:15;99704.22;;;9.14;67.14
76853;BME280;65825;52.232;10.566;2024-02-26T11:25:40;99703.22;;;9.58;65.86
76853;BME280;65825;52.232;10.566;2024-02-26T11:28:09;99701.38;;;9.80;64.61
76853;BME280;65825;52.232;10.566;2024-02-26T11:30:38;99711.97;;;9.38;65.62
76853;BME280;65825;52.232;10.566;2024-02-26T11:33:07;99712.78;;;9.40;65.47
76853;BME280;65825;52.232;10.566;2024-02-26T11:35:35;99702.97;;;9.02;66.43
76853;BME280;65825;52.232;10.566;2024-02-26T11:38:01;99700.16;;;9.07;66.31
76853;BME280;65825;52.232;10.566;2024-02-26T11:40:27;99711.56;;;9.47;65.76
76853;BME280;65825;52.232;10.566;2024-02-26T11:42:53;99716.84;;;9.47;66.07
76853;BME280;65825;52.232;10.566;2024-02-26T11:48:19;99717.31;;;9.37;65.35
76853;BME280;65825;52.232;10.566;2024-02-26T11:50:55;99720.41;;;9.86;65.20
76853;BME280;65825;52.232;10.566;2024-02-26T11:58:41;99723.00;;;9.68;64.88
76853;BME280;65825;52.232;10.566;2024-02-26T12:01:47;99730.09;;;9.86;64.62
76853;BME280;65825;52.232;10.566;2024-02-26T12:04:24;99727.72;;;9.80;65.12
76853;BME280;65825;52.232;10.566;2024-02-26T12:06:52;99722.72;;;9.74;64.89
76853;BME280;65825;52.232;10.566;2024-02-26T12:09:34;99731.63;;;9.71;66.06
76853;BME280;65825;52.232;10.566;2024-02-26T12:12:02;99723.09;;;9.45;66.84
76853;BME280;65825;52.232;10.566;2024-02-26T12:14:28;99735.09;;;10.12;64.69
76853;BME280;65825;52.232;10.566;2024-02-26T12:16:55;99733.19;;;10.34;64.78
76853;BME280;65825;52.232;10.566;2024-02-26T12:19:21;99727.16;;;10.32;64.44
76853;BME280;65825;52.232;10.566;2024-02-26T12:21:51;99731.28;;;10.37;64.35
76853;BME280;65825;52.232;10.566;2024-02-26T12:24:18;99736.69;;;10.16;64.72
76853;BME280;65825;52.232;10.566;2024-02-26T12:26:43;99736.28;;;10.25;65.52
76853;BME280;65825;52.232;10.566;2024-02-26T12:29:09;99745.44;;;9.96;64.61
76853;BME280;65825;52.232;10.566;2024-02-26T12:31:35;99738.81;;;9.68;66.43
76853;BME280;65825;52.232;10.566;2024-02-26T12:34:04;99747.44;;;9.91;66.32
76853;BME280;65825;52.232;10.566;2024-02-26T12:36:30;99748.56;;;10.06;65.71
76853;BME280;65825;52.232;10.566;2024-02-26T12:38:56;99754.84;;;10.02;66.26
76853;BME280;65825;52.232;10.566;2024-02-26T12:41:22;99751.13;;;9.67;66.72
76853;BME280;65825;52.232;10.566;2024-02-26T12:43:47;99753.22;;;9.79;66.18
76853;BME280;65825;52.232;10.566;2024-02-26T12:46:13;99747.50;;;9.90;65.97
76853;BME280;65825;52.232;10.566;2024-02-26T12:48:42;99747.22;;;9.76;67.08
76853;BME280;65825;52.232;10.566;2024-02-26T12:51:08;99734.94;;;10.35;67.11
76853;BME280;65825;52.232;10.566;2024-02-26T12:53:35;99750.28;;;10.25;65.14
76853;BME280;65825;52.232;10.566;2024-02-26T12:56:00;99745.97;;;9.84;66.33
76853;BME280;65825;52.232;10.566;2024-02-26T12:58:26;99743.97;;;9.89;66.54
76853;BME280;65825;52.232;10.566;2024-02-26T13:00:54;99742.88;;;10.15;66.20
76853;BME280;65825;52.232;10.566;2024-02-26T13:03:19;99743.53;;;10.00;67.11